• Join FlightAware (Why Join?)
  • Login
  • US Flag 
Rudolph Flight #1: Arrived! 
09:44PM EST


 

Airport Tracker/Info


-or-


 

Live Flight TrackerFlight Track Log ✈ VH-MQX ✈ 24-Apr-2013 ✈ YMBA / MRG - YBCS / CNS

Flight Track Log - Related Links

Times and Time Zones

All times are in EDT time to prevent confusion due to time zone crossing. See the VH-MQX flight status page for this flight to view local times or setup timezone preferences in your user account.

Time Position Orientation Groundspeed Altitude Reporting Facility
EDT Latitude Longitude Course Direction KTS MPH feet Rate Location/Type
11:38PM -17.0214 145.4781 223° Southwest 1,900  Level Aus ATC (Calculated)
11:39PM -17.0214 145.4781 223° Southwest 1,900 60 Level Aus ATC (Calculated)
11:41PM -17.0098 145.5019 63° Northeast  Level Estimated
11:41PM -17.0528 145.4475 63° Northeast 87 100 2,200  Level Aus ATC (RADAR)
11:42PM -17.0291 145.4650 35° Northeast 93 107 2,600 180 Climbing Aus ATC (RADAR)
11:43PM -17.0087 145.4839 41° Northeast 109 125 2,600 -60 Level Aus ATC (RADAR)
11:44PM -16.9828 145.5011 32° Northeast 109 125 2,500  Descending Aus ATC (RADAR)
11:44PM -16.9667 145.5124 34° Northeast 105 121 2,600 60 Climbing Aus ATC (RADAR)
11:45PM -16.9484 145.5365 52° Northeast 105 121 2,600  Level Aus ATC (RADAR)
11:46PM -16.9402 145.5494 56° Northeast 106 122 2,600  Level Aus ATC (RADAR)
11:47PM -16.9218 145.5827 60° Northeast 80 92 2,600 -60 Level Aus ATC (RADAR)
11:49PM -16.9162 145.6099 78° East 73 84 2,500  Descending Aus ATC (RADAR)
11:52PM -16.9702 145.5718 214° Southwest 91 105 2,600  Climbing Aus ATC (RADAR)
11:53PM -16.9670 145.5393 276° West 97 112 2,600 -60 Level Aus ATC (RADAR)
11:55PM -16.9345 145.5601 31° Northeast 96 110 2,500 -60 Descending Aus ATC (RADAR)
11:55PM -16.9221 145.5718 42° Northeast 100 115 2,500  Level Aus ATC (RADAR)
11:57PM -16.8935 145.6014 45° Northeast 109 125 2,500 -60 Level Aus ATC (RADAR)
11:57PM -16.8882 145.6070 46° Northeast 109 125 2,400 -120 Descending Aus ATC (RADAR)
11:58PM -16.8637 145.6259 36° Northeast 100 115 2,400  Level Aus ATC (RADAR)
11:59PM -16.8464 145.6325 20° North 100 115 2,400 60 Level Aus ATC (RADAR)
11:59PM -16.8270 145.6429 27° Northeast 105 121 2,500  Climbing Aus ATC (RADAR)
12:00AM -16.8134 145.6540 38° Northeast 106 122 2,400 -420 Descending Aus ATC (RADAR)
12:01AM -16.8093 145.6758 79° East 103 119 1,900 -540 Descending Aus ATC (RADAR)
12:01AM -16.8078 145.6834 79° East 105 121 1,800 -300 Descending Aus ATC (RADAR)
12:02AM -16.8055 145.7035 83° East 104 120 1,600 -420 Descending Aus ATC (RADAR)
12:03AM -16.8056 145.7249 90° East 96 110 1,200 -420 Descending Aus ATC (RADAR)
12:03AM -16.8223 145.7253 179° South 99 114 1,100 -420 Descending Aus ATC (RADAR)
12:04AM -16.8474 145.7350 160° South 96 110 600 -600 Descending Aus ATC (RADAR)
12:05AM -16.8696 145.7451 156° South 91 105 100 -600 Descending Aus ATC (RADAR)